Terminal Aerodrome Forecast
Issued by NWS

Home | Current Version | Previous Version | Text Only | Print | Product List | Glossary On
Versions: 1 2 3 4 5 6 7 8 9 10 11 12 13 14
738
FTUS44 KLZK 081143
TAFHRO
TAF
KHRO 081143Z 0812/0912 31018G27KT P6SM OVC050
     FM090000 32012G20KT P6SM OVC050=

USA.gov is the U.S. government's official web portal to all federal, state and local government web resources and services.